sensor_id;sensor_type;location;lat;lon;timestamp;P1;durP1;ratioP1;P2;durP2;ratioP2
51594;SDS011;37677;53.254;6.594;2022-11-27T00:02:02;28.95;;;9.50;;
51594;SDS011;37677;53.254;6.594;2022-11-27T00:04:28;32.92;;;9.52;;
51594;SDS011;37677;53.254;6.594;2022-11-27T00:06:55;34.80;;;8.80;;
51594;SDS011;37677;53.254;6.594;2022-11-27T00:09:21;35.15;;;9.57;;
51594;SDS011;37677;53.254;6.594;2022-11-27T00:11:47;28.52;;;9.75;;
51594;SDS011;37677;53.254;6.594;2022-11-27T00:14:13;30.33;;;9.48;;
51594;SDS011;37677;53.254;6.594;2022-11-27T00:16:40;21.15;;;9.10;;
51594;SDS011;37677;53.254;6.594;2022-11-27T00:19:06;25.60;;;8.35;;
51594;SDS011;37677;53.254;6.594;2022-11-27T00:21:33;32.42;;;9.63;;
51594;SDS011;37677;53.254;6.594;2022-11-27T00:24:00;30.52;;;9.45;;
51594;SDS011;37677;53.254;6.594;2022-11-27T00:26:27;32.55;;;9.13;;
51594;SDS011;37677;53.254;6.594;2022-11-27T00:28:53;29.65;;;9.60;;
51594;SDS011;37677;53.254;6.594;2022-11-27T00:31:21;29.15;;;9.65;;
51594;SDS011;37677;53.254;6.594;2022-11-27T00:33:47;22.88;;;7.82;;
51594;SDS011;37677;53.254;6.594;2022-11-27T00:36:13;30.67;;;9.13;;
51594;SDS011;37677;53.254;6.594;2022-11-27T00:38:40;23.35;;;7.63;;
51594;SDS011;37677;53.254;6.594;2022-11-27T00:41:16;23.85;;;8.25;;
51594;SDS011;37677;53.254;6.594;2022-11-27T00:43:43;25.60;;;9.18;;
51594;SDS011;37677;53.254;6.594;2022-11-27T00:46:09;26.02;;;8.45;;
51594;SDS011;37677;53.254;6.594;2022-11-27T00:48:35;23.58;;;7.75;;
51594;SDS011;37677;53.254;6.594;2022-11-27T00:51:02;23.70;;;8.70;;
51594;SDS011;37677;53.254;6.594;2022-11-27T00:53:28;27.23;;;8.85;;
51594;SDS011;37677;53.254;6.594;2022-11-27T00:55:55;24.70;;;9.52;;
51594;SDS011;37677;53.254;6.594;2022-11-27T00:58:22;20.85;;;8.73;;
51594;SDS011;37677;53.254;6.594;2022-11-27T01:00:54;22.65;;;7.82;;
51594;SDS011;37677;53.254;6.594;2022-11-27T01:03:21;22.25;;;8.98;;
51594;SDS011;37677;53.254;6.594;2022-11-27T01:05:47;30.27;;;8.90;;
51594;SDS011;37677;53.254;6.594;2022-11-27T01:08:13;21.50;;;8.05;;
51594;SDS011;37677;53.254;6.594;2022-11-27T01:10:39;27.08;;;8.52;;
51594;SDS011;37677;53.254;6.594;2022-11-27T01:13:12;20.08;;;8.35;;
51594;SDS011;37677;53.254;6.594;2022-11-27T01:15:38;19.77;;;8.35;;
51594;SDS011;37677;53.254;6.594;2022-11-27T01:18:04;22.73;;;8.20;;
51594;SDS011;37677;53.254;6.594;2022-11-27T01:20:30;19.27;;;7.90;;
51594;SDS011;37677;53.254;6.594;2022-11-27T01:22:56;23.33;;;8.35;;
51594;SDS011;37677;53.254;6.594;2022-11-27T01:25:22;25.92;;;7.75;;
51594;SDS011;37677;53.254;6.594;2022-11-27T01:27:48;21.60;;;7.53;;
51594;SDS011;37677;53.254;6.594;2022-11-27T01:30:14;23.58;;;8.20;;
51594;SDS011;37677;53.254;6.594;2022-11-27T01:32:40;21.40;;;8.70;;
51594;SDS011;37677;53.254;6.594;2022-11-27T01:35:06;23.83;;;8.50;;
51594;SDS011;37677;53.254;6.594;2022-11-27T01:37:33;25.88;;;8.80;;
51594;SDS011;37677;53.254;6.594;2022-11-27T01:39:59;22.70;;;8.60;;
51594;SDS011;37677;53.254;6.594;2022-11-27T01:42:24;24.65;;;8.38;;
51594;SDS011;37677;53.254;6.594;2022-11-27T01:44:52;24.65;;;8.55;;
51594;SDS011;37677;53.254;6.594;2022-11-27T01:47:25;26.17;;;8.90;;
51594;SDS011;37677;53.254;6.594;2022-11-27T01:49:52;20.40;;;8.35;;
51594;SDS011;37677;53.254;6.594;2022-11-27T01:52:21;21.77;;;8.70;;
51594;SDS011;37677;53.254;6.594;2022-11-27T01:57:22;22.80;;;8.68;;
51594;SDS011;37677;53.254;6.594;2022-11-27T01:59:48;20.63;;;7.88;;
51594;SDS011;37677;53.254;6.594;2022-11-27T02:02:15;20.33;;;8.38;;
51594;SDS011;37677;53.254;6.594;2022-11-27T02:04:41;21.73;;;8.20;;
51594;SDS011;37677;53.254;6.594;2022-11-27T02:07:07;22.73;;;8.57;;
51594;SDS011;37677;53.254;6.594;2022-11-27T02:09:34;23.10;;;8.88;;
51594;SDS011;37677;53.254;6.594;2022-11-27T02:22:50;23.10;;;7.20;;
51594;SDS011;37677;53.254;6.594;2022-11-27T02:25:11;20.88;;;7.65;;
51594;SDS011;37677;53.254;6.594;2022-11-27T02:30:23;21.02;;;8.25;;
51594;SDS011;37677;53.254;6.594;2022-11-27T02:32:51;15.23;;;7.95;;
51594;SDS011;37677;53.254;6.594;2022-11-27T02:37:48;24.67;;;7.85;;
51594;SDS011;37677;53.254;6.594;2022-11-27T02:40:20;19.40;;;7.95;;
51594;SDS011;37677;53.254;6.594;2022-11-27T02:42:58;23.98;;;8.95;;
51594;SDS011;37677;53.254;6.594;2022-11-27T02:45:29;20.17;;;7.47;;
51594;SDS011;37677;53.254;6.594;2022-11-27T02:47:56;19.75;;;7.25;;
51594;SDS011;37677;53.254;6.594;2022-11-27T02:50:23;20.88;;;8.00;;
51594;SDS011;37677;53.254;6.594;2022-11-27T02:52:50;20.88;;;8.00;;
51594;SDS011;37677;53.254;6.594;2022-11-27T02:55:19;19.35;;;7.75;;
51594;SDS011;37677;53.254;6.594;2022-11-27T02:57:47;21.15;;;8.13;;
51594;SDS011;37677;53.254;6.594;2022-11-27T03:00:15;19.20;;;7.82;;
51594;SDS011;37677;53.254;6.594;2022-11-27T03:02:43;19.75;;;7.55;;
51594;SDS011;37677;53.254;6.594;2022-11-27T03:05:11;17.05;;;6.68;;
51594;SDS011;37677;53.254;6.594;2022-11-27T03:08:03;22.05;;;7.55;;
51594;SDS011;37677;53.254;6.594;2022-11-27T03:10:28;17.58;;;7.35;;
51594;SDS011;37677;53.254;6.594;2022-11-27T03:12:54;24.70;;;7.95;;
51594;SDS011;37677;53.254;6.594;2022-11-27T03:15:20;21.05;;;7.65;;
51594;SDS011;37677;53.254;6.594;2022-11-27T03:22:40;19.00;;;7.53;;
51594;SDS011;37677;53.254;6.594;2022-11-27T03:25:06;19.08;;;7.22;;
51594;SDS011;37677;53.254;6.594;2022-11-27T03:27:34;20.55;;;7.55;;
51594;SDS011;37677;53.254;6.594;2022-11-27T03:30:06;13.68;;;6.82;;
51594;SDS011;37677;53.254;6.594;2022-11-27T03:32:33;16.58;;;6.68;;
51594;SDS011;37677;53.254;6.594;2022-11-27T03:34:59;17.88;;;7.25;;
51594;SDS011;37677;53.254;6.594;2022-11-27T03:37:25;20.20;;;6.53;;
51594;SDS011;37677;53.254;6.594;2022-11-27T03:39:51;17.75;;;6.80;;
51594;SDS011;37677;53.254;6.594;2022-11-27T03:42:22;16.27;;;7.05;;
51594;SDS011;37677;53.254;6.594;2022-11-27T03:44:54;19.15;;;7.30;;
51594;SDS011;37677;53.254;6.594;2022-11-27T03:50:12;23.27;;;7.22;;
51594;SDS011;37677;53.254;6.594;2022-11-27T03:55:11;17.52;;;7.00;;
51594;SDS011;37677;53.254;6.594;2022-11-27T03:57:40;20.52;;;7.88;;
51594;SDS011;37677;53.254;6.594;2022-11-27T04:00:07;16.35;;;6.72;;
51594;SDS011;37677;53.254;6.594;2022-11-27T04:02:38;20.67;;;6.95;;
51594;SDS011;37677;53.254;6.594;2022-11-27T04:05:05;17.65;;;6.57;;
51594;SDS011;37677;53.254;6.594;2022-11-27T04:07:31;21.42;;;7.25;;
51594;SDS011;37677;53.254;6.594;2022-11-27T04:09:57;16.23;;;6.95;;
51594;SDS011;37677;53.254;6.594;2022-11-27T04:12:23;14.55;;;6.55;;
51594;SDS011;37677;53.254;6.594;2022-11-27T04:14:49;16.73;;;6.70;;
51594;SDS011;37677;53.254;6.594;2022-11-27T04:17:16;15.05;;;6.68;;
51594;SDS011;37677;53.254;6.594;2022-11-27T04:19:42;15.73;;;6.55;;
51594;SDS011;37677;53.254;6.594;2022-11-27T04:22:08;19.73;;;6.78;;
51594;SDS011;37677;53.254;6.594;2022-11-27T04:24:34;14.82;;;6.72;;
51594;SDS011;37677;53.254;6.594;2022-11-27T04:27:00;21.70;;;6.45;;
51594;SDS011;37677;53.254;6.594;2022-11-27T04:29:26;20.73;;;7.93;;
51594;SDS011;37677;53.254;6.594;2022-11-27T04:31:52;16.95;;;7.00;;
51594;SDS011;37677;53.254;6.594;2022-11-27T04:34:18;19.40;;;6.68;;
51594;SDS011;37677;53.254;6.594;2022-11-27T04:36:44;18.58;;;7.07;;
51594;SDS011;37677;53.254;6.594;2022-11-27T04:39:10;14.70;;;6.28;;
51594;SDS011;37677;53.254;6.594;2022-11-27T04:41:37;15.63;;;6.75;;
51594;SDS011;37677;53.254;6.594;2022-11-27T04:44:04;14.45;;;6.90;;
51594;SDS011;37677;53.254;6.594;2022-11-27T04:46:30;21.77;;;6.32;;
51594;SDS011;37677;53.254;6.594;2022-11-27T04:48:56;17.08;;;6.50;;
51594;SDS011;37677;53.254;6.594;2022-11-27T04:51:22;16.40;;;7.78;;
51594;SDS011;37677;53.254;6.594;2022-11-27T04:53:48;22.90;;;7.20;;
51594;SDS011;37677;53.254;6.594;2022-11-27T04:56:14;12.88;;;5.93;;
51594;SDS011;37677;53.254;6.594;2022-11-27T04:58:40;16.25;;;7.18;;
51594;SDS011;37677;53.254;6.594;2022-11-27T05:01:07;16.77;;;6.75;;
51594;SDS011;37677;53.254;6.594;2022-11-27T05:03:33;16.35;;;7.00;;
51594;SDS011;37677;53.254;6.594;2022-11-27T05:05:59;18.77;;;6.28;;
51594;SDS011;37677;53.254;6.594;2022-11-27T05:08:27;14.75;;;6.53;;
51594;SDS011;37677;53.254;6.594;2022-11-27T05:11:00;12.20;;;6.32;;
51594;SDS011;37677;53.254;6.594;2022-11-27T05:13:26;14.68;;;5.90;;
51594;SDS011;37677;53.254;6.594;2022-11-27T05:15:52;15.18;;;6.45;;
51594;SDS011;37677;53.254;6.594;2022-11-27T05:18:18;14.88;;;6.85;;
51594;SDS011;37677;53.254;6.594;2022-11-27T05:20:45;18.10;;;6.22;;
51594;SDS011;37677;53.254;6.594;2022-11-27T05:23:11;15.32;;;6.32;;
51594;SDS011;37677;53.254;6.594;2022-11-27T05:25:37;14.55;;;6.68;;
51594;SDS011;37677;53.254;6.594;2022-11-27T05:28:03;13.02;;;5.82;;
51594;SDS011;37677;53.254;6.594;2022-11-27T05:30:30;14.60;;;5.75;;
51594;SDS011;37677;53.254;6.594;2022-11-27T05:32:56;18.80;;;6.85;;
51594;SDS011;37677;53.254;6.594;2022-11-27T05:35:22;16.02;;;6.45;;
51594;SDS011;37677;53.254;6.594;2022-11-27T05:37:48;17.67;;;6.50;;
51594;SDS011;37677;53.254;6.594;2022-11-27T05:40:14;11.18;;;5.65;;
51594;SDS011;37677;53.254;6.594;2022-11-27T05:42:40;13.68;;;6.40;;
51594;SDS011;37677;53.254;6.594;2022-11-27T05:45:06;19.65;;;6.75;;
51594;SDS011;37677;53.254;6.594;2022-11-27T05:47:32;15.00;;;6.10;;
51594;SDS011;37677;53.254;6.594;2022-11-27T05:49:58;15.60;;;6.40;;
51594;SDS011;37677;53.254;6.594;2022-11-27T05:52:24;16.65;;;6.82;;
51594;SDS011;37677;53.254;6.594;2022-11-27T05:54:50;13.35;;;6.40;;
51594;SDS011;37677;53.254;6.594;2022-11-27T05:57:16;21.20;;;6.70;;
51594;SDS011;37677;53.254;6.594;2022-11-27T05:59:42;16.80;;;6.55;;
51594;SDS011;37677;53.254;6.594;2022-11-27T06:02:08;16.25;;;6.55;;
51594;SDS011;37677;53.254;6.594;2022-11-27T06:04:34;12.50;;;5.57;;
51594;SDS011;37677;53.254;6.594;2022-11-27T06:07:00;15.10;;;6.07;;
51594;SDS011;37677;53.254;6.594;2022-11-27T06:09:26;14.68;;;5.95;;
51594;SDS011;37677;53.254;6.594;2022-11-27T06:11:52;15.75;;;5.13;;
51594;SDS011;37677;53.254;6.594;2022-11-27T06:14:18;14.68;;;6.10;;
51594;SDS011;37677;53.254;6.594;2022-11-27T06:16:45;14.65;;;5.53;;
51594;SDS011;37677;53.254;6.594;2022-11-27T06:19:11;14.77;;;5.72;;
51594;SDS011;37677;53.254;6.594;2022-11-27T06:21:37;12.32;;;4.90;;
51594;SDS011;37677;53.254;6.594;2022-11-27T06:24:03;11.07;;;5.30;;
51594;SDS011;37677;53.254;6.594;2022-11-27T06:26:30;15.02;;;5.10;;
51594;SDS011;37677;53.254;6.594;2022-11-27T06:28:57;12.77;;;5.22;;
51594;SDS011;37677;53.254;6.594;2022-11-27T06:31:24;14.90;;;5.38;;
51594;SDS011;37677;53.254;6.594;2022-11-27T06:33:51;15.52;;;5.28;;
51594;SDS011;37677;53.254;6.594;2022-11-27T06:36:18;11.60;;;5.20;;
51594;SDS011;37677;53.254;6.594;2022-11-27T06:38:44;13.75;;;5.55;;
51594;SDS011;37677;53.254;6.594;2022-11-27T06:41:14;12.15;;;5.15;;
51594;SDS011;37677;53.254;6.594;2022-11-27T06:43:41;15.75;;;5.65;;
51594;SDS011;37677;53.254;6.594;2022-11-27T06:46:08;13.63;;;5.10;;
51594;SDS011;37677;53.254;6.594;2022-11-27T06:48:36;13.30;;;5.50;;
51594;SDS011;37677;53.254;6.594;2022-11-27T06:51:04;11.30;;;5.40;;
51594;SDS011;37677;53.254;6.594;2022-11-27T06:53:32;12.10;;;4.68;;
51594;SDS011;37677;53.254;6.594;2022-11-27T06:56:00;15.20;;;4.82;;
51594;SDS011;37677;53.254;6.594;2022-11-27T06:58:26;10.45;;;5.10;;
51594;SDS011;37677;53.254;6.594;2022-11-27T07:00:59;13.93;;;5.60;;
51594;SDS011;37677;53.254;6.594;2022-11-27T07:03:25;13.27;;;4.93;;
51594;SDS011;37677;53.254;6.594;2022-11-27T07:05:52;13.00;;;5.50;;
51594;SDS011;37677;53.254;6.594;2022-11-27T07:08:18;16.02;;;5.30;;
51594;SDS011;37677;53.254;6.594;2022-11-27T07:10:44;12.57;;;5.32;;
51594;SDS011;37677;53.254;6.594;2022-11-27T07:13:10;16.50;;;5.13;;
51594;SDS011;37677;53.254;6.594;2022-11-27T07:15:36;14.68;;;5.40;;
51594;SDS011;37677;53.254;6.594;2022-11-27T07:18:02;11.43;;;4.93;;
51594;SDS011;37677;53.254;6.594;2022-11-27T07:20:28;12.20;;;5.22;;
51594;SDS011;37677;53.254;6.594;2022-11-27T07:22:54;11.38;;;5.22;;
51594;SDS011;37677;53.254;6.594;2022-11-27T07:25:20;13.20;;;5.65;;
51594;SDS011;37677;53.254;6.594;2022-11-27T07:27:46;14.25;;;5.68;;
51594;SDS011;37677;53.254;6.594;2022-11-27T07:30:12;11.13;;;4.47;;
51594;SDS011;37677;53.254;6.594;2022-11-27T07:32:38;12.48;;;5.50;;
51594;SDS011;37677;53.254;6.594;2022-11-27T07:35:05;13.13;;;5.63;;
51594;SDS011;37677;53.254;6.594;2022-11-27T07:37:31;11.75;;;5.55;;
51594;SDS011;37677;53.254;6.594;2022-11-27T07:39:57;13.18;;;5.70;;
51594;SDS011;37677;53.254;6.594;2022-11-27T07:42:24;17.02;;;5.60;;
51594;SDS011;37677;53.254;6.594;2022-11-27T07:44:50;14.35;;;5.20;;
51594;SDS011;37677;53.254;6.594;2022-11-27T07:47:16;12.52;;;5.65;;
51594;SDS011;37677;53.254;6.594;2022-11-27T07:49:42;12.55;;;5.15;;
51594;SDS011;37677;53.254;6.594;2022-11-27T07:52:08;12.48;;;5.03;;
51594;SDS011;37677;53.254;6.594;2022-11-27T07:54:34;12.95;;;5.22;;
51594;SDS011;37677;53.254;6.594;2022-11-27T07:57:00;14.20;;;5.72;;
51594;SDS011;37677;53.254;6.594;2022-11-27T07:59:27;11.63;;;5.38;;
51594;SDS011;37677;53.254;6.594;2022-11-27T08:01:53;13.35;;;5.85;;
51594;SDS011;37677;53.254;6.594;2022-11-27T08:04:19;14.02;;;5.30;;
51594;SDS011;37677;53.254;6.594;2022-11-27T08:06:47;11.63;;;5.00;;
51594;SDS011;37677;53.254;6.594;2022-11-27T08:09:14;13.43;;;5.60;;
51594;SDS011;37677;53.254;6.594;2022-11-27T08:11:40;15.35;;;6.15;;
51594;SDS011;37677;53.254;6.594;2022-11-27T08:14:06;14.25;;;5.90;;
51594;SDS011;37677;53.254;6.594;2022-11-27T08:16:33;17.00;;;6.60;;
51594;SDS011;37677;53.254;6.594;2022-11-27T08:19:00;12.32;;;5.50;;
51594;SDS011;37677;53.254;6.594;2022-11-27T08:21:27;16.35;;;7.43;;
51594;SDS011;37677;53.254;6.594;2022-11-27T08:23:55;12.75;;;6.25;;
51594;SDS011;37677;53.254;6.594;2022-11-27T08:26:22;16.20;;;6.82;;
51594;SDS011;37677;53.254;6.594;2022-11-27T08:28:50;12.65;;;5.85;;
51594;SDS011;37677;53.254;6.594;2022-11-27T08:31:16;13.63;;;6.07;;
51594;SDS011;37677;53.254;6.594;2022-11-27T08:33:44;13.38;;;6.68;;
51594;SDS011;37677;53.254;6.594;2022-11-27T08:36:10;10.23;;;5.82;;
51594;SDS011;37677;53.254;6.594;2022-11-27T08:38:36;12.82;;;6.32;;
51594;SDS011;37677;53.254;6.594;2022-11-27T08:41:04;13.82;;;6.75;;
51594;SDS011;37677;53.254;6.594;2022-11-27T08:43:30;13.98;;;5.85;;
51594;SDS011;37677;53.254;6.594;2022-11-27T08:45:56;12.35;;;6.20;;
51594;SDS011;37677;53.254;6.594;2022-11-27T08:48:23;15.82;;;6.85;;
51594;SDS011;37677;53.254;6.594;2022-11-27T08:50:50;13.65;;;6.28;;
51594;SDS011;37677;53.254;6.594;2022-11-27T08:53:16;11.82;;;5.78;;
51594;SDS011;37677;53.254;6.594;2022-11-27T08:55:44;12.82;;;6.45;;
51594;SDS011;37677;53.254;6.594;2022-11-27T08:58:10;12.65;;;6.43;;
51594;SDS011;37677;53.254;6.594;2022-11-27T09:00:37;11.13;;;6.68;;
51594;SDS011;37677;53.254;6.594;2022-11-27T09:03:03;12.25;;;7.38;;
51594;SDS011;37677;53.254;6.594;2022-11-27T09:05:29;13.32;;;6.10;;
51594;SDS011;37677;53.254;6.594;2022-11-27T09:07:56;13.00;;;6.35;;
51594;SDS011;37677;53.254;6.594;2022-11-27T09:10:23;15.48;;;7.28;;
51594;SDS011;37677;53.254;6.594;2022-11-27T09:12:49;13.90;;;6.80;;
51594;SDS011;37677;53.254;6.594;2022-11-27T09:15:16;15.65;;;6.93;;
51594;SDS011;37677;53.254;6.594;2022-11-27T09:17:43;11.75;;;6.82;;
51594;SDS011;37677;53.254;6.594;2022-11-27T09:20:09;10.77;;;6.32;;
51594;SDS011;37677;53.254;6.594;2022-11-27T09:22:38;13.43;;;6.68;;
51594;SDS011;37677;53.254;6.594;2022-11-27T09:25:04;10.15;;;6.82;;
51594;SDS011;37677;53.254;6.594;2022-11-27T09:27:30;13.85;;;7.63;;
51594;SDS011;37677;53.254;6.594;2022-11-27T09:29:56;12.88;;;7.13;;
51594;SDS011;37677;53.254;6.594;2022-11-27T09:32:24;18.67;;;8.30;;
51594;SDS011;37677;53.254;6.594;2022-11-27T09:34:50;12.70;;;6.97;;
51594;SDS011;37677;53.254;6.594;2022-11-27T09:37:16;17.77;;;7.95;;
51594;SDS011;37677;53.254;6.594;2022-11-27T09:39:42;13.15;;;8.02;;
51594;SDS011;37677;53.254;6.594;2022-11-27T09:42:09;15.18;;;7.45;;
51594;SDS011;37677;53.254;6.594;2022-11-27T09:44:45;16.13;;;7.60;;
51594;SDS011;37677;53.254;6.594;2022-11-27T09:49:46;15.45;;;7.90;;
51594;SDS011;37677;53.254;6.594;2022-11-27T09:52:16;15.07;;;8.25;;
51594;SDS011;37677;53.254;6.594;2022-11-27T09:54:49;19.58;;;8.68;;
51594;SDS011;37677;53.254;6.594;2022-11-27T09:57:21;15.90;;;8.18;;
51594;SDS011;37677;53.254;6.594;2022-11-27T09:59:49;16.15;;;8.20;;
51594;SDS011;37677;53.254;6.594;2022-11-27T10:02:26;15.70;;;8.25;;
51594;SDS011;37677;53.254;6.594;2022-11-27T10:04:53;20.35;;;8.85;;
51594;SDS011;37677;53.254;6.594;2022-11-27T10:17:23;13.57;;;8.65;;
51594;SDS011;37677;53.254;6.594;2022-11-27T10:20:00;20.55;;;9.20;;
51594;SDS011;37677;53.254;6.594;2022-11-27T10:22:38;13.27;;;7.97;;
51594;SDS011;37677;53.254;6.594;2022-11-27T10:25:20;17.98;;;8.38;;
51594;SDS011;37677;53.254;6.594;2022-11-27T10:28:02;15.43;;;8.07;;
51594;SDS011;37677;53.254;6.594;2022-11-27T10:30:30;16.88;;;8.25;;
51594;SDS011;37677;53.254;6.594;2022-11-27T10:32:57;16.58;;;8.40;;
51594;SDS011;37677;53.254;6.594;2022-11-27T10:35:28;14.73;;;8.43;;
51594;SDS011;37677;53.254;6.594;2022-11-27T10:37:57;15.60;;;9.18;;
51594;SDS011;37677;53.254;6.594;2022-11-27T10:40:26;14.48;;;8.88;;
51594;SDS011;37677;53.254;6.594;2022-11-27T10:42:57;13.40;;;8.20;;
51594;SDS011;37677;53.254;6.594;2022-11-27T10:45:41;19.08;;;8.57;;
51594;SDS011;37677;53.254;6.594;2022-11-27T10:48:09;14.57;;;8.45;;
51594;SDS011;37677;53.254;6.594;2022-11-27T10:50:36;16.65;;;9.15;;
51594;SDS011;37677;53.254;6.594;2022-11-27T10:53:24;14.38;;;8.70;;
51594;SDS011;37677;53.254;6.594;2022-11-27T11:00:58;16.92;;;9.65;;
51594;SDS011;37677;53.254;6.594;2022-11-27T11:03:24;14.00;;;8.52;;
51594;SDS011;37677;53.254;6.594;2022-11-27T11:05:55;15.13;;;8.88;;
51594;SDS011;37677;53.254;6.594;2022-11-27T11:08:22;17.85;;;8.77;;
51594;SDS011;37677;53.254;6.594;2022-11-27T11:13:23;17.77;;;9.45;;
51594;SDS011;37677;53.254;6.594;2022-11-27T11:18:18;15.05;;;8.48;;
51594;SDS011;37677;53.254;6.594;2022-11-27T11:20:49;16.35;;;8.68;;
51594;SDS011;37677;53.254;6.594;2022-11-27T11:23:25;17.63;;;9.38;;
51594;SDS011;37677;53.254;6.594;2022-11-27T11:25:53;18.02;;;9.48;;
51594;SDS011;37677;53.254;6.594;2022-11-27T11:28:20;16.80;;;9.00;;
51594;SDS011;37677;53.254;6.594;2022-11-27T11:30:54;14.38;;;9.27;;
51594;SDS011;37677;53.254;6.594;2022-11-27T11:33:21;16.20;;;9.27;;
51594;SDS011;37677;53.254;6.594;2022-11-27T11:35:51;14.15;;;9.05;;
51594;SDS011;37677;53.254;6.594;2022-11-27T11:38:26;16.40;;;9.32;;
51594;SDS011;37677;53.254;6.594;2022-11-27T11:40:58;14.77;;;8.73;;
51594;SDS011;37677;53.254;6.594;2022-11-27T11:43:26;17.38;;;9.25;;
51594;SDS011;37677;53.254;6.594;2022-11-27T11:45:52;17.10;;;9.32;;
51594;SDS011;37677;53.254;6.594;2022-11-27T11:48:23;12.73;;;8.55;;
51594;SDS011;37677;53.254;6.594;2022-11-27T11:50:54;14.00;;;8.40;;
51594;SDS011;37677;53.254;6.594;2022-11-27T12:01:01;12.75;;;9.02;;
51594;SDS011;37677;53.254;6.594;2022-11-27T12:03:45;12.23;;;8.77;;
51594;SDS011;37677;53.254;6.594;2022-11-27T12:16:56;19.75;;;9.50;;
51594;SDS011;37677;53.254;6.594;2022-11-27T12:29:46;13.82;;;8.95;;
51594;SDS011;37677;53.254;6.594;2022-11-27T12:35:06;17.38;;;9.63;;
51594;SDS011;37677;53.254;6.594;2022-11-27T12:37:45;16.90;;;9.55;;
51594;SDS011;37677;53.254;6.594;2022-11-27T12:40:32;18.23;;;10.35;;
51594;SDS011;37677;53.254;6.594;2022-11-27T12:45:32;18.00;;;9.90;;
51594;SDS011;37677;53.254;6.594;2022-11-27T12:48:10;15.70;;;9.27;;
51594;SDS011;37677;53.254;6.594;2022-11-27T12:50:44;13.00;;;9.02;;
51594;SDS011;37677;53.254;6.594;2022-11-27T12:53:17;16.73;;;9.57;;
51594;SDS011;37677;53.254;6.594;2022-11-27T12:58:32;16.30;;;9.48;;
51594;SDS011;37677;53.254;6.594;2022-11-27T13:01:04;15.15;;;9.35;;
51594;SDS011;37677;53.254;6.594;2022-11-27T13:06:11;16.88;;;9.35;;
51594;SDS011;37677;53.254;6.594;2022-11-27T13:11:09;15.52;;;9.50;;
51594;SDS011;37677;53.254;6.594;2022-11-27T13:13:39;16.50;;;9.50;;
51594;SDS011;37677;53.254;6.594;2022-11-27T13:16:12;13.52;;;9.20;;
51594;SDS011;37677;53.254;6.594;2022-11-27T13:18:53;14.75;;;9.25;;
51594;SDS011;37677;53.254;6.594;2022-11-27T13:21:22;14.35;;;9.45;;
51594;SDS011;37677;53.254;6.594;2022-11-27T13:23:49;13.50;;;9.05;;
51594;SDS011;37677;53.254;6.594;2022-11-27T13:26:20;16.63;;;9.07;;
51594;SDS011;37677;53.254;6.594;2022-11-27T13:28:55;17.83;;;9.85;;
51594;SDS011;37677;53.254;6.594;2022-11-27T13:31:23;13.73;;;9.02;;
51594;SDS011;37677;53.254;6.594;2022-11-27T13:33:50;13.80;;;9.88;;
51594;SDS011;37677;53.254;6.594;2022-11-27T13:36:18;15.05;;;9.45;;
51594;SDS011;37677;53.254;6.594;2022-11-27T13:38:50;13.48;;;9.13;;
51594;SDS011;37677;53.254;6.594;2022-11-27T13:41:20;12.88;;;8.70;;
51594;SDS011;37677;53.254;6.594;2022-11-27T13:43:46;14.43;;;9.18;;
51594;SDS011;37677;53.254;6.594;2022-11-27T13:48:41;15.52;;;9.50;;
51594;SDS011;37677;53.254;6.594;2022-11-27T13:51:09;16.35;;;9.93;;
51594;SDS011;37677;53.254;6.594;2022-11-27T13:53:36;16.70;;;9.23;;
51594;SDS011;37677;53.254;6.594;2022-11-27T13:56:03;14.68;;;9.27;;
51594;SDS011;37677;53.254;6.594;2022-11-27T13:58:31;14.95;;;9.43;;
51594;SDS011;37677;53.254;6.594;2022-11-27T14:00:58;13.13;;;9.50;;
51594;SDS011;37677;53.254;6.594;2022-11-27T14:03:28;11.55;;;9.10;;
51594;SDS011;37677;53.254;6.594;2022-11-27T14:05:55;14.40;;;9.52;;
51594;SDS011;37677;53.254;6.594;2022-11-27T14:08:23;13.05;;;9.65;;
51594;SDS011;37677;53.254;6.594;2022-11-27T14:10:55;14.23;;;9.32;;
51594;SDS011;37677;53.254;6.594;2022-11-27T14:13:30;16.52;;;9.43;;
51594;SDS011;37677;53.254;6.594;2022-11-27T14:15:58;16.70;;;9.32;;
51594;SDS011;37677;53.254;6.594;2022-11-27T14:18:26;14.85;;;9.65;;
51594;SDS011;37677;53.254;6.594;2022-11-27T14:20:55;15.13;;;9.43;;
51594;SDS011;37677;53.254;6.594;2022-11-27T14:23:31;15.07;;;9.75;;
51594;SDS011;37677;53.254;6.594;2022-11-27T14:26:06;16.45;;;10.35;;
51594;SDS011;37677;53.254;6.594;2022-11-27T14:28:45;14.93;;;10.63;;
51594;SDS011;37677;53.254;6.594;2022-11-27T14:33:55;14.35;;;10.00;;
51594;SDS011;37677;53.254;6.594;2022-11-27T14:36:24;14.68;;;9.48;;
51594;SDS011;37677;53.254;6.594;2022-11-27T14:38:50;17.13;;;10.48;;
51594;SDS011;37677;53.254;6.594;2022-11-27T14:41:18;15.73;;;10.38;;
51594;SDS011;37677;53.254;6.594;2022-11-27T14:43:44;13.85;;;9.20;;
51594;SDS011;37677;53.254;6.594;2022-11-27T14:46:17;11.82;;;9.45;;
51594;SDS011;37677;53.254;6.594;2022-11-27T14:48:47;13.88;;;9.80;;
51594;SDS011;37677;53.254;6.594;2022-11-27T14:53:47;14.57;;;10.33;;
51594;SDS011;37677;53.254;6.594;2022-11-27T14:56:13;16.58;;;9.10;;
51594;SDS011;37677;53.254;6.594;2022-11-27T14:58:47;13.10;;;10.05;;
51594;SDS011;37677;53.254;6.594;2022-11-27T15:01:56;15.45;;;9.90;;
51594;SDS011;37677;53.254;6.594;2022-11-27T15:06:52;12.63;;;10.50;;
51594;SDS011;37677;53.254;6.594;2022-11-27T15:09:19;15.23;;;10.27;;
51594;SDS011;37677;53.254;6.594;2022-11-27T15:12:05;16.13;;;10.68;;
51594;SDS011;37677;53.254;6.594;2022-11-27T15:14:33;15.23;;;10.20;;
51594;SDS011;37677;53.254;6.594;2022-11-27T15:17:00;14.65;;;10.52;;
51594;SDS011;37677;53.254;6.594;2022-11-27T15:19:34;12.80;;;10.27;;
51594;SDS011;37677;53.254;6.594;2022-11-27T15:22:00;16.25;;;10.52;;
51594;SDS011;37677;53.254;6.594;2022-11-27T15:24:27;13.50;;;9.95;;
51594;SDS011;37677;53.254;6.594;2022-11-27T15:26:54;18.85;;;10.70;;
51594;SDS011;37677;53.254;6.594;2022-11-27T15:31:52;15.82;;;11.57;;
51594;SDS011;37677;53.254;6.594;2022-11-27T15:34:20;16.85;;;10.95;;
51594;SDS011;37677;53.254;6.594;2022-11-27T15:36:55;17.02;;;11.35;;
51594;SDS011;37677;53.254;6.594;2022-11-27T15:42:08;17.27;;;10.43;;
51594;SDS011;37677;53.254;6.594;2022-11-27T15:44:34;17.33;;;11.85;;
51594;SDS011;37677;53.254;6.594;2022-11-27T15:47:01;18.42;;;10.80;;
51594;SDS011;37677;53.254;6.594;2022-11-27T15:49:27;14.48;;;11.23;;
51594;SDS011;37677;53.254;6.594;2022-11-27T15:51:54;13.20;;;9.98;;
51594;SDS011;37677;53.254;6.594;2022-11-27T15:54:21;14.73;;;10.95;;
51594;SDS011;37677;53.254;6.594;2022-11-27T15:56:47;16.23;;;11.20;;
51594;SDS011;37677;53.254;6.594;2022-11-27T15:59:14;15.68;;;11.27;;
51594;SDS011;37677;53.254;6.594;2022-11-27T16:01:41;15.73;;;11.20;;
51594;SDS011;37677;53.254;6.594;2022-11-27T16:04:07;15.73;;;11.20;;
51594;SDS011;37677;53.254;6.594;2022-11-27T16:06:36;14.60;;;10.70;;
51594;SDS011;37677;53.254;6.594;2022-11-27T16:09:03;14.80;;;11.90;;
51594;SDS011;37677;53.254;6.594;2022-11-27T16:11:29;15.32;;;11.38;;
51594;SDS011;37677;53.254;6.594;2022-11-27T16:13:56;14.23;;;11.48;;
51594;SDS011;37677;53.254;6.594;2022-11-27T16:16:22;18.65;;;10.98;;
51594;SDS011;37677;53.254;6.594;2022-11-27T16:18:48;15.48;;;11.50;;
51594;SDS011;37677;53.254;6.594;2022-11-27T16:21:15;15.30;;;11.43;;
51594;SDS011;37677;53.254;6.594;2022-11-27T16:23:41;14.52;;;11.57;;
51594;SDS011;37677;53.254;6.594;2022-11-27T16:26:11;13.48;;;10.65;;
51594;SDS011;37677;53.254;6.594;2022-11-27T16:28:38;16.77;;;11.63;;